Rechercher aéroport 
image banner adimage banner adimage banner ad
image banner ad

CA09 - Round Mountain

Situé à Klamath River, United States

ICAO - CA09, IATA -

Données fournies par Airmate  

Information générale

Coordonnées: N41°53'10" W122°50'40"
Élévation : 3500 feet MSL.
Variation magnétique : 18° East
Voir autres Aéroports à California

Données opérationnelles

Special qualification required
Heure actuelle UTC:
Heure actuelle locale:
Météo à : KSIY - Siskiyou County ( 33 km )
METAR: KSIY 020453Z AUTO 33014G18KT 10SM CLR 29/09 A3011 RMK AO2 SLP177 T02890089 $
Voir NOTAMs / SUP AIP / TFR affectant cet aéroport [VIEW]
Fréquences de communication: [VIEW]

Pistes:

Identifiant RWYQFULongueur (ft)Largeur (ft)SurfaceLDA (ft)
03150050EARTH
21150050EARTH

Coordonnées de l'aéroport

Adresse: Klamath River United States

Vue satellite de CA09